sensor_id;sensor_type;location;lat;lon;timestamp;temperature;humidity
84983;DHT22;75295;45.426;9.696;2024-02-04T00:02:04;10.50;75.50
84983;DHT22;75295;45.426;9.696;2024-02-04T00:04:33;10.50;75.60
84983;DHT22;75295;45.426;9.696;2024-02-04T00:07:00;10.40;75.30
84983;DHT22;75295;45.426;9.696;2024-02-04T00:09:27;10.30;75.70
84983;DHT22;75295;45.426;9.696;2024-02-04T00:11:55;10.20;76.00
84983;DHT22;75295;45.426;9.696;2024-02-04T00:14:23;10.20;76.40
84983;DHT22;75295;45.426;9.696;2024-02-04T00:16:49;10.20;76.20
84983;DHT22;75295;45.426;9.696;2024-02-04T00:19:16;10.20;76.00
84983;DHT22;75295;45.426;9.696;2024-02-04T00:21:45;10.20;75.80
84983;DHT22;75295;45.426;9.696;2024-02-04T00:24:12;10.20;75.50
84983;DHT22;75295;45.426;9.696;2024-02-04T00:26:39;10.20;75.90
84983;DHT22;75295;45.426;9.696;2024-02-04T00:29:05;10.10;76.10
84983;DHT22;75295;45.426;9.696;2024-02-04T00:31:32;10.10;76.20
84983;DHT22;75295;45.426;9.696;2024-02-04T00:33:59;10.10;76.30
84983;DHT22;75295;45.426;9.696;2024-02-04T00:36:27;10.10;76.10
84983;DHT22;75295;45.426;9.696;2024-02-04T00:38:53;10.20;76.10
84983;DHT22;75295;45.426;9.696;2024-02-04T00:41:20;10.20;76.00
84983;DHT22;75295;45.426;9.696;2024-02-04T00:43:48;10.10;75.30
84983;DHT22;75295;45.426;9.696;2024-02-04T00:46:14;10.00;75.20
84983;DHT22;75295;45.426;9.696;2024-02-04T00:48:41;10.00;75.70
84983;DHT22;75295;45.426;9.696;2024-02-04T00:51:08;9.90;76.00
84983;DHT22;75295;45.426;9.696;2024-02-04T00:53:35;10.00;76.20
84983;DHT22;75295;45.426;9.696;2024-02-04T00:56:03;10.00;76.30
84983;DHT22;75295;45.426;9.696;2024-02-04T00:58:31;9.90;76.30
84983;DHT22;75295;45.426;9.696;2024-02-04T01:00:57;10.00;76.30
84983;DHT22;75295;45.426;9.696;2024-02-04T01:03:24;10.00;76.30
84983;DHT22;75295;45.426;9.696;2024-02-04T01:05:51;10.00;76.40
84983;DHT22;75295;45.426;9.696;2024-02-04T01:08:18;9.90;76.50
84983;DHT22;75295;45.426;9.696;2024-02-04T01:10:44;9.90;76.60
84983;DHT22;75295;45.426;9.696;2024-02-04T01:13:11;9.90;76.60
84983;DHT22;75295;45.426;9.696;2024-02-04T01:15:38;9.90;76.70
84983;DHT22;75295;45.426;9.696;2024-02-04T01:18:05;9.90;76.70
84983;DHT22;75295;45.426;9.696;2024-02-04T01:20:33;9.90;76.70
84983;DHT22;75295;45.426;9.696;2024-02-04T01:23:00;9.90;76.70
84983;DHT22;75295;45.426;9.696;2024-02-04T01:25:26;9.90;76.70
84983;DHT22;75295;45.426;9.696;2024-02-04T01:27:53;9.90;77.00
84983;DHT22;75295;45.426;9.696;2024-02-04T01:30:20;9.80;77.20
84983;DHT22;75295;45.426;9.696;2024-02-04T01:32:47;9.80;77.40
84983;DHT22;75295;45.426;9.696;2024-02-04T01:35:13;9.80;77.40
84983;DHT22;75295;45.426;9.696;2024-02-04T01:37:41;9.70;77.30
84983;DHT22;75295;45.426;9.696;2024-02-04T01:40:10;9.80;77.50
84983;DHT22;75295;45.426;9.696;2024-02-04T01:42:37;9.80;77.50
84983;DHT22;75295;45.426;9.696;2024-02-04T01:45:04;9.70;77.40
84983;DHT22;75295;45.426;9.696;2024-02-04T01:47:31;9.70;77.40
84983;DHT22;75295;45.426;9.696;2024-02-04T01:49:58;9.80;77.40
84983;DHT22;75295;45.426;9.696;2024-02-04T01:52:25;9.80;77.40
84983;DHT22;75295;45.426;9.696;2024-02-04T01:54:52;9.70;77.30
84983;DHT22;75295;45.426;9.696;2024-02-04T01:57:19;9.70;77.50
84983;DHT22;75295;45.426;9.696;2024-02-04T01:59:47;9.70;77.60
84983;DHT22;75295;45.426;9.696;2024-02-04T02:02:15;9.70;77.50
84983;DHT22;75295;45.426;9.696;2024-02-04T02:04:42;9.80;77.50
84983;DHT22;75295;45.426;9.696;2024-02-04T02:07:09;9.80;77.40
84983;DHT22;75295;45.426;9.696;2024-02-04T02:09:36;9.70;77.40
84983;DHT22;75295;45.426;9.696;2024-02-04T02:12:11;9.80;77.50
84983;DHT22;75295;45.426;9.696;2024-02-04T02:14:44;9.70;77.30
84983;DHT22;75295;45.426;9.696;2024-02-04T02:17:20;9.70;77.40
84983;DHT22;75295;45.426;9.696;2024-02-04T02:22:45;9.70;77.40
84983;DHT22;75295;45.426;9.696;2024-02-04T02:25:17;9.60;77.30
84983;DHT22;75295;45.426;9.696;2024-02-04T02:27:50;9.60;77.60
84983;DHT22;75295;45.426;9.696;2024-02-04T02:30:17;9.60;77.70
84983;DHT22;75295;45.426;9.696;2024-02-04T02:32:45;9.60;77.80
84983;DHT22;75295;45.426;9.696;2024-02-04T02:35:17;9.50;77.90
84983;DHT22;75295;45.426;9.696;2024-02-04T02:37:59;9.50;78.00
84983;DHT22;75295;45.426;9.696;2024-02-04T02:40:37;9.50;78.00
84983;DHT22;75295;45.426;9.696;2024-02-04T02:43:05;9.60;77.70
84983;DHT22;75295;45.426;9.696;2024-02-04T02:45:34;9.60;78.00
84983;DHT22;75295;45.426;9.696;2024-02-04T02:48:01;9.60;77.50
84983;DHT22;75295;45.426;9.696;2024-02-04T02:50:28;9.60;77.70
84983;DHT22;75295;45.426;9.696;2024-02-04T02:52:56;9.50;77.80
84983;DHT22;75295;45.426;9.696;2024-02-04T02:55:23;9.40;78.10
84983;DHT22;75295;45.426;9.696;2024-02-04T02:57:50;9.40;78.50
84983;DHT22;75295;45.426;9.696;2024-02-04T03:00:16;9.40;78.70
84983;DHT22;75295;45.426;9.696;2024-02-04T03:02:44;9.30;78.40
84983;DHT22;75295;45.426;9.696;2024-02-04T03:05:12;9.30;77.50
84983;DHT22;75295;45.426;9.696;2024-02-04T03:07:39;9.40;81.80
84983;DHT22;75295;45.426;9.696;2024-02-04T03:10:06;9.40;80.70
84983;DHT22;75295;45.426;9.696;2024-02-04T03:12:34;9.40;80.40
84983;DHT22;75295;45.426;9.696;2024-02-04T03:15:01;9.50;81.00
84983;DHT22;75295;45.426;9.696;2024-02-04T03:17:29;9.50;80.30
84983;DHT22;75295;45.426;9.696;2024-02-04T03:19:56;9.50;80.20
84983;DHT22;75295;45.426;9.696;2024-02-04T03:22:23;9.50;80.00
84983;DHT22;75295;45.426;9.696;2024-02-04T03:24:50;9.50;80.00
84983;DHT22;75295;45.426;9.696;2024-02-04T03:27:18;9.50;80.00
84983;DHT22;75295;45.426;9.696;2024-02-04T03:29:45;9.40;80.30
84983;DHT22;75295;45.426;9.696;2024-02-04T03:32:12;9.50;80.60
84983;DHT22;75295;45.426;9.696;2024-02-04T03:34:41;9.40;80.30
84983;DHT22;75295;45.426;9.696;2024-02-04T03:37:08;9.40;80.70
84983;DHT22;75295;45.426;9.696;2024-02-04T03:42:03;9.20;78.40
84983;DHT22;75295;45.426;9.696;2024-02-04T03:44:30;9.10;79.00
84983;DHT22;75295;45.426;9.696;2024-02-04T03:46:57;9.10;78.80
84983;DHT22;75295;45.426;9.696;2024-02-04T03:49:24;9.10;78.80
84983;DHT22;75295;45.426;9.696;2024-02-04T03:51:51;9.10;78.80
84983;DHT22;75295;45.426;9.696;2024-02-04T03:54:18;9.10;78.90
84983;DHT22;75295;45.426;9.696;2024-02-04T03:56:45;9.00;79.10
84983;DHT22;75295;45.426;9.696;2024-02-04T03:59:12;9.00;79.30
84983;DHT22;75295;45.426;9.696;2024-02-04T04:01:39;9.00;79.20
84983;DHT22;75295;45.426;9.696;2024-02-04T04:04:06;9.00;79.00
84983;DHT22;75295;45.426;9.696;2024-02-04T04:06:33;8.90;78.80
84983;DHT22;75295;45.426;9.696;2024-02-04T04:08:59;8.90;78.50
84983;DHT22;75295;45.426;9.696;2024-02-04T04:11:27;8.80;78.40
84983;DHT22;75295;45.426;9.696;2024-02-04T04:13:53;8.70;78.70
84983;DHT22;75295;45.426;9.696;2024-02-04T04:16:21;8.60;78.10
84983;DHT22;75295;45.426;9.696;2024-02-04T04:18:49;8.50;78.40
84983;DHT22;75295;45.426;9.696;2024-02-04T04:21:16;8.50;78.80
84983;DHT22;75295;45.426;9.696;2024-02-04T04:23:44;8.40;78.80
84983;DHT22;75295;45.426;9.696;2024-02-04T04:26:10;8.50;78.60
84983;DHT22;75295;45.426;9.696;2024-02-04T04:28:37;8.40;77.40
84983;DHT22;75295;45.426;9.696;2024-02-04T04:31:05;8.30;77.40
84983;DHT22;75295;45.426;9.696;2024-02-04T04:33:32;8.10;78.10
84983;DHT22;75295;45.426;9.696;2024-02-04T04:35:58;8.10;77.60
84983;DHT22;75295;45.426;9.696;2024-02-04T04:38:25;8.00;77.80
84983;DHT22;75295;45.426;9.696;2024-02-04T04:40:52;7.90;78.40
84983;DHT22;75295;45.426;9.696;2024-02-04T04:43:18;7.90;77.80
84983;DHT22;75295;45.426;9.696;2024-02-04T04:45:45;7.90;77.80
84983;DHT22;75295;45.426;9.696;2024-02-04T04:48:12;7.90;78.10
84983;DHT22;75295;45.426;9.696;2024-02-04T04:50:39;7.80;78.00
84983;DHT22;75295;45.426;9.696;2024-02-04T04:53:06;7.80;78.40
84983;DHT22;75295;45.426;9.696;2024-02-04T04:55:33;7.80;78.30
84983;DHT22;75295;45.426;9.696;2024-02-04T04:57:59;7.80;77.40
84983;DHT22;75295;45.426;9.696;2024-02-04T05:00:26;7.70;77.10
84983;DHT22;75295;45.426;9.696;2024-02-04T05:02:53;7.50;77.20
84983;DHT22;75295;45.426;9.696;2024-02-04T05:05:20;7.50;78.20
84983;DHT22;75295;45.426;9.696;2024-02-04T05:07:47;7.50;78.30
84983;DHT22;75295;45.426;9.696;2024-02-04T05:10:14;7.50;77.50
84983;DHT22;75295;45.426;9.696;2024-02-04T05:12:41;7.30;77.10
84983;DHT22;75295;45.426;9.696;2024-02-04T05:15:08;7.10;77.90
84983;DHT22;75295;45.426;9.696;2024-02-04T05:17:35;7.00;78.80
84983;DHT22;75295;45.426;9.696;2024-02-04T05:20:02;6.90;79.30
84983;DHT22;75295;45.426;9.696;2024-02-04T05:22:29;6.90;79.60
84983;DHT22;75295;45.426;9.696;2024-02-04T05:24:57;6.90;79.80
84983;DHT22;75295;45.426;9.696;2024-02-04T05:27:24;7.00;79.80
84983;DHT22;75295;45.426;9.696;2024-02-04T05:29:51;7.00;79.70
84983;DHT22;75295;45.426;9.696;2024-02-04T05:32:17;7.10;79.70
84983;DHT22;75295;45.426;9.696;2024-02-04T05:34:44;7.10;79.20
84983;DHT22;75295;45.426;9.696;2024-02-04T05:37:11;7.00;78.70
84983;DHT22;75295;45.426;9.696;2024-02-04T05:39:38;6.90;78.90
84983;DHT22;75295;45.426;9.696;2024-02-04T05:42:05;6.90;79.00
84983;DHT22;75295;45.426;9.696;2024-02-04T05:44:32;7.00;79.00
84983;DHT22;75295;45.426;9.696;2024-02-04T05:46:58;7.00;79.10
84983;DHT22;75295;45.426;9.696;2024-02-04T05:49:25;7.00;79.10
84983;DHT22;75295;45.426;9.696;2024-02-04T05:51:52;7.10;79.40
84983;DHT22;75295;45.426;9.696;2024-02-04T05:54:19;7.10;79.40
84983;DHT22;75295;45.426;9.696;2024-02-04T05:56:46;7.10;79.30
84983;DHT22;75295;45.426;9.696;2024-02-04T05:59:13;7.20;78.90
84983;DHT22;75295;45.426;9.696;2024-02-04T06:01:40;7.10;77.60
84983;DHT22;75295;45.426;9.696;2024-02-04T06:04:07;7.00;77.80
84983;DHT22;75295;45.426;9.696;2024-02-04T06:06:33;7.00;78.90
84983;DHT22;75295;45.426;9.696;2024-02-04T06:09:00;7.10;77.30
84983;DHT22;75295;45.426;9.696;2024-02-04T06:11:27;7.10;76.90
84983;DHT22;75295;45.426;9.696;2024-02-04T06:13:54;7.10;76.70
84983;DHT22;75295;45.426;9.696;2024-02-04T06:16:20;7.10;76.70
84983;DHT22;75295;45.426;9.696;2024-02-04T06:18:47;7.10;75.80
84983;DHT22;75295;45.426;9.696;2024-02-04T06:21:14;6.90;75.20
84983;DHT22;75295;45.426;9.696;2024-02-04T06:23:41;6.70;75.20
84983;DHT22;75295;45.426;9.696;2024-02-04T06:26:08;6.50;76.50
84983;DHT22;75295;45.426;9.696;2024-02-04T06:28:36;6.50;77.50
84983;DHT22;75295;45.426;9.696;2024-02-04T06:31:03;6.50;77.70
84983;DHT22;75295;45.426;9.696;2024-02-04T06:33:29;6.60;77.60
84983;DHT22;75295;45.426;9.696;2024-02-04T06:35:56;6.40;77.40
84983;DHT22;75295;45.426;9.696;2024-02-04T06:38:23;6.40;77.90
84983;DHT22;75295;45.426;9.696;2024-02-04T06:40:50;6.40;77.90
84983;DHT22;75295;45.426;9.696;2024-02-04T06:43:17;6.50;77.80
84983;DHT22;75295;45.426;9.696;2024-02-04T06:45:44;6.60;77.60
84983;DHT22;75295;45.426;9.696;2024-02-04T06:48:11;6.80;77.40
84983;DHT22;75295;45.426;9.696;2024-02-04T06:50:37;6.80;77.30
84983;DHT22;75295;45.426;9.696;2024-02-04T06:53:04;6.90;77.10
84983;DHT22;75295;45.426;9.696;2024-02-04T06:55:31;7.00;76.70
84983;DHT22;75295;45.426;9.696;2024-02-04T06:57:57;7.00;76.60
84983;DHT22;75295;45.426;9.696;2024-02-04T07:00:25;6.80;78.00
84983;DHT22;75295;45.426;9.696;2024-02-04T07:02:52;6.80;78.60
84983;DHT22;75295;45.426;9.696;2024-02-04T07:05:18;6.80;78.80
84983;DHT22;75295;45.426;9.696;2024-02-04T07:07:50;6.90;78.80
84983;DHT22;75295;45.426;9.696;2024-02-04T07:10:17;6.90;78.70
84983;DHT22;75295;45.426;9.696;2024-02-04T07:12:43;6.90;78.60
84983;DHT22;75295;45.426;9.696;2024-02-04T07:15:10;6.90;78.70
84983;DHT22;75295;45.426;9.696;2024-02-04T07:17:37;7.00;78.70
84983;DHT22;75295;45.426;9.696;2024-02-04T07:20:04;7.10;78.30
84983;DHT22;75295;45.426;9.696;2024-02-04T07:22:32;7.10;78.00
84983;DHT22;75295;45.426;9.696;2024-02-04T07:25:01;7.20;77.80
84983;DHT22;75295;45.426;9.696;2024-02-04T07:27:29;7.30;77.40
84983;DHT22;75295;45.426;9.696;2024-02-04T07:29:57;7.30;76.90
84983;DHT22;75295;45.426;9.696;2024-02-04T07:32:24;7.30;76.20
84983;DHT22;75295;45.426;9.696;2024-02-04T07:34:51;7.30;75.90
84983;DHT22;75295;45.426;9.696;2024-02-04T07:37:17;7.10;76.00
84983;DHT22;75295;45.426;9.696;2024-02-04T07:39:45;7.10;75.80
84983;DHT22;75295;45.426;9.696;2024-02-04T07:42:11;7.10;76.50
84983;DHT22;75295;45.426;9.696;2024-02-04T07:44:39;7.10;76.80
84983;DHT22;75295;45.426;9.696;2024-02-04T07:47:06;7.20;77.70
84983;DHT22;75295;45.426;9.696;2024-02-04T07:49:33;7.20;77.10
84983;DHT22;75295;45.426;9.696;2024-02-04T07:52:00;7.30;77.60
84983;DHT22;75295;45.426;9.696;2024-02-04T07:54:27;7.40;77.60
84983;DHT22;75295;45.426;9.696;2024-02-04T07:56:55;7.40;77.40
84983;DHT22;75295;45.426;9.696;2024-02-04T07:59:23;7.50;77.70
84983;DHT22;75295;45.426;9.696;2024-02-04T08:01:50;7.60;77.80
84983;DHT22;75295;45.426;9.696;2024-02-04T08:04:17;7.60;78.00
84983;DHT22;75295;45.426;9.696;2024-02-04T08:06:44;7.70;78.20
84983;DHT22;75295;45.426;9.696;2024-02-04T08:09:10;7.80;78.20
84983;DHT22;75295;45.426;9.696;2024-02-04T08:11:38;7.80;78.30
84983;DHT22;75295;45.426;9.696;2024-02-04T08:14:05;7.80;78.70
84983;DHT22;75295;45.426;9.696;2024-02-04T08:16:32;7.90;78.90
84983;DHT22;75295;45.426;9.696;2024-02-04T08:18:58;7.90;78.90
84983;DHT22;75295;45.426;9.696;2024-02-04T08:21:25;8.00;78.90
84983;DHT22;75295;45.426;9.696;2024-02-04T08:23:54;8.00;79.10
84983;DHT22;75295;45.426;9.696;2024-02-04T08:26:20;8.10;79.10
84983;DHT22;75295;45.426;9.696;2024-02-04T08:28:47;8.10;79.20
84983;DHT22;75295;45.426;9.696;2024-02-04T08:31:14;8.20;79.50
84983;DHT22;75295;45.426;9.696;2024-02-04T08:33:40;8.20;79.60
84983;DHT22;75295;45.426;9.696;2024-02-04T08:36:07;8.20;79.50
84983;DHT22;75295;45.426;9.696;2024-02-04T08:38:37;8.20;79.60
84983;DHT22;75295;45.426;9.696;2024-02-04T08:41:05;8.20;79.80
84983;DHT22;75295;45.426;9.696;2024-02-04T08:43:31;8.20;80.00
84983;DHT22;75295;45.426;9.696;2024-02-04T08:45:58;8.20;80.20
84983;DHT22;75295;45.426;9.696;2024-02-04T08:48:25;8.20;80.50
84983;DHT22;75295;45.426;9.696;2024-02-04T08:50:52;8.20;80.80
84983;DHT22;75295;45.426;9.696;2024-02-04T08:53:21;8.20;81.20
84983;DHT22;75295;45.426;9.696;2024-02-04T08:55:49;8.30;81.50
84983;DHT22;75295;45.426;9.696;2024-02-04T08:58:16;8.30;81.80
84983;DHT22;75295;45.426;9.696;2024-02-04T09:00:43;8.30;82.10
84983;DHT22;75295;45.426;9.696;2024-02-04T09:03:10;8.50;82.10
84983;DHT22;75295;45.426;9.696;2024-02-04T09:05:37;8.60;81.70
84983;DHT22;75295;45.426;9.696;2024-02-04T09:08:04;8.70;81.30
84983;DHT22;75295;45.426;9.696;2024-02-04T09:10:31;8.80;81.20
84983;DHT22;75295;45.426;9.696;2024-02-04T09:12:58;8.90;81.10
84983;DHT22;75295;45.426;9.696;2024-02-04T09:15:24;9.00;81.00
84983;DHT22;75295;45.426;9.696;2024-02-04T09:17:51;9.00;81.00
84983;DHT22;75295;45.426;9.696;2024-02-04T09:20:18;9.10;80.90
84983;DHT22;75295;45.426;9.696;2024-02-04T09:22:44;9.20;80.70
84983;DHT22;75295;45.426;9.696;2024-02-04T09:25:11;9.30;80.60
84983;DHT22;75295;45.426;9.696;2024-02-04T09:27:37;9.40;80.50
84983;DHT22;75295;45.426;9.696;2024-02-04T09:30:05;9.40;80.30
84983;DHT22;75295;45.426;9.696;2024-02-04T09:32:32;9.50;80.20
84983;DHT22;75295;45.426;9.696;2024-02-04T09:35:00;9.50;80.00
84983;DHT22;75295;45.426;9.696;2024-02-04T09:37:27;9.50;80.20
84983;DHT22;75295;45.426;9.696;2024-02-04T09:39:53;9.50;80.50
84983;DHT22;75295;45.426;9.696;2024-02-04T09:42:21;9.50;80.60
84983;DHT22;75295;45.426;9.696;2024-02-04T09:44:51;9.60;80.70
84983;DHT22;75295;45.426;9.696;2024-02-04T09:47:19;9.60;80.70
84983;DHT22;75295;45.426;9.696;2024-02-04T09:49:47;9.60;81.00
84983;DHT22;75295;45.426;9.696;2024-02-04T09:52:17;9.60;81.20
84983;DHT22;75295;45.426;9.696;2024-02-04T09:54:52;9.60;81.40
84983;DHT22;75295;45.426;9.696;2024-02-04T09:57:22;9.70;81.70
84983;DHT22;75295;45.426;9.696;2024-02-04T09:59:49;9.80;81.90
84983;DHT22;75295;45.426;9.696;2024-02-04T10:02:16;9.80;81.90
84983;DHT22;75295;45.426;9.696;2024-02-04T10:04:43;10.00;82.20
84983;DHT22;75295;45.426;9.696;2024-02-04T10:07:11;10.10;82.10
84983;DHT22;75295;45.426;9.696;2024-02-04T10:09:40;10.10;81.80
84983;DHT22;75295;45.426;9.696;2024-02-04T10:12:07;10.30;81.70
84983;DHT22;75295;45.426;9.696;2024-02-04T10:14:35;10.30;81.50
84983;DHT22;75295;45.426;9.696;2024-02-04T10:17:02;10.40;81.50
84983;DHT22;75295;45.426;9.696;2024-02-04T10:19:29;10.50;81.40
84983;DHT22;75295;45.426;9.696;2024-02-04T10:22:04;10.50;81.20
84983;DHT22;75295;45.426;9.696;2024-02-04T10:24:31;10.60;81.30
84983;DHT22;75295;45.426;9.696;2024-02-04T10:26:58;10.70;81.00
84983;DHT22;75295;45.426;9.696;2024-02-04T10:29:25;10.80;80.80
84983;DHT22;75295;45.426;9.696;2024-02-04T10:31:55;10.80;80.70
84983;DHT22;75295;45.426;9.696;2024-02-04T10:34:27;10.90;80.80
84983;DHT22;75295;45.426;9.696;2024-02-04T10:36:56;10.90;80.70
84983;DHT22;75295;45.426;9.696;2024-02-04T10:39:23;11.00;80.80
84983;DHT22;75295;45.426;9.696;2024-02-04T10:41:51;11.00;80.70
84983;DHT22;75295;45.426;9.696;2024-02-04T10:44:23;11.10;80.50
84983;DHT22;75295;45.426;9.696;2024-02-04T10:46:51;11.20;80.40
84983;DHT22;75295;45.426;9.696;2024-02-04T10:49:19;11.30;80.10
84983;DHT22;75295;45.426;9.696;2024-02-04T10:51:46;11.40;79.90
84983;DHT22;75295;45.426;9.696;2024-02-04T10:54:15;11.40;79.90
84983;DHT22;75295;45.426;9.696;2024-02-04T10:56:45;11.50;79.80
84983;DHT22;75295;45.426;9.696;2024-02-04T10:59:15;11.60;79.90
84983;DHT22;75295;45.426;9.696;2024-02-04T11:01:45;11.60;80.10
84983;DHT22;75295;45.426;9.696;2024-02-04T11:04:15;11.70;80.30
84983;DHT22;75295;45.426;9.696;2024-02-04T11:06:44;11.70;80.10
84983;DHT22;75295;45.426;9.696;2024-02-04T11:09:15;11.80;80.10
84983;DHT22;75295;45.426;9.696;2024-02-04T11:11:43;11.80;80.00
84983;DHT22;75295;45.426;9.696;2024-02-04T11:14:13;11.80;80.00
84983;DHT22;75295;45.426;9.696;2024-02-04T11:25:36;12.20;80.30
84983;DHT22;75295;45.426;9.696;2024-02-04T11:28:10;12.30;80.20
84983;DHT22;75295;45.426;9.696;2024-02-04T11:30:38;12.30;80.10
84983;DHT22;75295;45.426;9.696;2024-02-04T11:33:06;12.40;79.90
84983;DHT22;75295;45.426;9.696;2024-02-04T11:35:33;12.50;79.50
84983;DHT22;75295;45.426;9.696;2024-02-04T11:38:02;12.50;79.50
84983;DHT22;75295;45.426;9.696;2024-02-04T11:40:36;12.60;79.60
84983;DHT22;75295;45.426;9.696;2024-02-04T11:43:10;12.70;79.40
84983;DHT22;75295;45.426;9.696;2024-02-04T11:45:42;12.70;79.10
84983;DHT22;75295;45.426;9.696;2024-02-04T11:48:10;12.80;79.10
84983;DHT22;75295;45.426;9.696;2024-02-04T11:50:38;13.00;78.60
84983;DHT22;75295;45.426;9.696;2024-02-04T11:53:10;13.00;78.30
84983;DHT22;75295;45.426;9.696;2024-02-04T11:55:41;13.00;78.40
84983;DHT22;75295;45.426;9.696;2024-02-04T11:58:08;13.10;78.00
84983;DHT22;75295;45.426;9.696;2024-02-04T12:00:41;13.10;77.70
84983;DHT22;75295;45.426;9.696;2024-02-04T12:03:08;13.10;77.30
84983;DHT22;75295;45.426;9.696;2024-02-04T12:05:36;13.10;77.30
84983;DHT22;75295;45.426;9.696;2024-02-04T12:08:05;13.10;77.50
84983;DHT22;75295;45.426;9.696;2024-02-04T12:10:35;13.10;77.30
84983;DHT22;75295;45.426;9.696;2024-02-04T12:13:03;13.10;77.20
84983;DHT22;75295;45.426;9.696;2024-02-04T12:15:32;13.00;77.60
84983;DHT22;75295;45.426;9.696;2024-02-04T12:18:10;13.00;77.60
84983;DHT22;75295;45.426;9.696;2024-02-04T12:20:38;13.00;77.80
84983;DHT22;75295;45.426;9.696;2024-02-04T12:23:06;13.10;78.00
84983;DHT22;75295;45.426;9.696;2024-02-04T12:25:34;13.10;77.60
84983;DHT22;75295;45.426;9.696;2024-02-04T12:28:02;13.10;77.80
84983;DHT22;75295;45.426;9.696;2024-02-04T12:30:31;13.20;77.50
84983;DHT22;75295;45.426;9.696;2024-02-04T12:33:04;13.20;77.50
84983;DHT22;75295;45.426;9.696;2024-02-04T12:35:32;13.30;77.80
84983;DHT22;75295;45.426;9.696;2024-02-04T12:38:00;13.40;77.00
84983;DHT22;75295;45.426;9.696;2024-02-04T12:40:28;13.40;76.80
84983;DHT22;75295;45.426;9.696;2024-02-04T12:42:58;13.50;76.50
84983;DHT22;75295;45.426;9.696;2024-02-04T12:45:28;13.60;76.20
84983;DHT22;75295;45.426;9.696;2024-02-04T12:47:57;13.60;75.90
84983;DHT22;75295;45.426;9.696;2024-02-04T12:50:25;13.60;76.10
84983;DHT22;75295;45.426;9.696;2024-02-04T12:53:06;13.70;75.70
84983;DHT22;75295;45.426;9.696;2024-02-04T12:55:35;13.70;75.70
84983;DHT22;75295;45.426;9.696;2024-02-04T12:58:10;13.80;75.50
84983;DHT22;75295;45.426;9.696;2024-02-04T13:00:38;13.80;75.60
84983;DHT22;75295;45.426;9.696;2024-02-04T13:03:06;13.90;75.60
84983;DHT22;75295;45.426;9.696;2024-02-04T13:05:37;14.00;75.70
84983;DHT22;75295;45.426;9.696;2024-02-04T13:08:05;14.20;74.80
84983;DHT22;75295;45.426;9.696;2024-02-04T13:10:33;14.30;74.80
84983;DHT22;75295;45.426;9.696;2024-02-04T13:13:09;14.30;74.30
84983;DHT22;75295;45.426;9.696;2024-02-04T13:15:40;14.40;74.20
84983;DHT22;75295;45.426;9.696;2024-02-04T13:18:12;14.40;74.00
84983;DHT22;75295;45.426;9.696;2024-02-04T13:20:42;14.40;74.10
84983;DHT22;75295;45.426;9.696;2024-02-04T13:23:09;14.50;74.20
84983;DHT22;75295;45.426;9.696;2024-02-04T13:25:36;14.50;74.00
84983;DHT22;75295;45.426;9.696;2024-02-04T13:28:02;14.60;73.90
84983;DHT22;75295;45.426;9.696;2024-02-04T13:30:30;14.60;73.10
84983;DHT22;75295;45.426;9.696;2024-02-04T13:32:58;14.60;73.50
84983;DHT22;75295;45.426;9.696;2024-02-04T13:35:26;14.60;72.70
84983;DHT22;75295;45.426;9.696;2024-02-04T13:37:53;14.60;72.70
84983;DHT22;75295;45.426;9.696;2024-02-04T13:40:21;14.60;72.80
84983;DHT22;75295;45.426;9.696;2024-02-04T13:42:49;14.60;72.80
84983;DHT22;75295;45.426;9.696;2024-02-04T13:45:16;14.60;72.90
84983;DHT22;75295;45.426;9.696;2024-02-04T13:47:43;14.50;72.80
84983;DHT22;75295;45.426;9.696;2024-02-04T13:50:11;14.50;73.10
84983;DHT22;75295;45.426;9.696;2024-02-04T13:52:38;14.50;73.10
84983;DHT22;75295;45.426;9.696;2024-02-04T13:55:05;14.40;73.20
84983;DHT22;75295;45.426;9.696;2024-02-04T13:57:36;14.40;73.40
84983;DHT22;75295;45.426;9.696;2024-02-04T14:00:03;14.30;73.50
84983;DHT22;75295;45.426;9.696;2024-02-04T14:02:33;14.30;73.70
84983;DHT22;75295;45.426;9.696;2024-02-04T14:05:00;14.30;73.90
84983;DHT22;75295;45.426;9.696;2024-02-04T14:07:27;14.20;74.20
84983;DHT22;75295;45.426;9.696;2024-02-04T14:09:54;14.10;74.30
84983;DHT22;75295;45.426;9.696;2024-02-04T14:12:21;14.10;74.40
84983;DHT22;75295;45.426;9.696;2024-02-04T14:14:47;14.10;74.50
84983;DHT22;75295;45.426;9.696;2024-02-04T14:17:17;14.00;74.70
84983;DHT22;75295;45.426;9.696;2024-02-04T14:19:44;14.00;75.00
84983;DHT22;75295;45.426;9.696;2024-02-04T14:22:15;13.90;75.60
84983;DHT22;75295;45.426;9.696;2024-02-04T14:24:43;13.90;75.10
84983;DHT22;75295;45.426;9.696;2024-02-04T14:27:11;13.90;75.40
84983;DHT22;75295;45.426;9.696;2024-02-04T14:29:39;13.90;75.50
84983;DHT22;75295;45.426;9.696;2024-02-04T14:32:05;13.90;75.70
84983;DHT22;75295;45.426;9.696;2024-02-04T14:34:32;13.90;75.60
84983;DHT22;75295;45.426;9.696;2024-02-04T14:36:59;13.80;75.70
84983;DHT22;75295;45.426;9.696;2024-02-04T14:39:26;13.80;75.80
84983;DHT22;75295;45.426;9.696;2024-02-04T14:41:53;13.80;75.80
84983;DHT22;75295;45.426;9.696;2024-02-04T14:44:20;13.80;75.90
84983;DHT22;75295;45.426;9.696;2024-02-04T14:46:47;13.80;75.90
84983;DHT22;75295;45.426;9.696;2024-02-04T14:49:14;13.80;75.90
84983;DHT22;75295;45.426;9.696;2024-02-04T14:51:41;13.80;75.90
84983;DHT22;75295;45.426;9.696;2024-02-04T14:54:09;13.80;75.90
84983;DHT22;75295;45.426;9.696;2024-02-04T14:56:41;13.80;76.00
84983;DHT22;75295;45.426;9.696;2024-02-04T14:59:09;13.80;75.90
84983;DHT22;75295;45.426;9.696;2024-02-04T15:01:37;13.70;75.80
84983;DHT22;75295;45.426;9.696;2024-02-04T15:04:05;13.70;75.80
84983;DHT22;75295;45.426;9.696;2024-02-04T15:06:33;13.70;76.00
84983;DHT22;75295;45.426;9.696;2024-02-04T15:09:00;13.70;76.00
84983;DHT22;75295;45.426;9.696;2024-02-04T15:11:28;13.70;76.10
84983;DHT22;75295;45.426;9.696;2024-02-04T15:13:57;13.70;76.20
84983;DHT22;75295;45.426;9.696;2024-02-04T15:16:25;13.60;76.20
84983;DHT22;75295;45.426;9.696;2024-02-04T15:18:52;13.60;76.20
84983;DHT22;75295;45.426;9.696;2024-02-04T15:21:20;13.60;76.30
84983;DHT22;75295;45.426;9.696;2024-02-04T15:23:47;13.50;76.30
84983;DHT22;75295;45.426;9.696;2024-02-04T15:26:15;13.50;76.30
84983;DHT22;75295;45.426;9.696;2024-02-04T15:28:42;13.50;76.60
84983;DHT22;75295;45.426;9.696;2024-02-04T15:31:09;13.40;76.70
84983;DHT22;75295;45.426;9.696;2024-02-04T15:33:37;13.40;76.80
84983;DHT22;75295;45.426;9.696;2024-02-04T15:36:04;13.30;76.80
84983;DHT22;75295;45.426;9.696;2024-02-04T15:38:31;13.30;77.00
84983;DHT22;75295;45.426;9.696;2024-02-04T15:40:57;13.30;77.00
84983;DHT22;75295;45.426;9.696;2024-02-04T15:43:24;13.20;77.20
84983;DHT22;75295;45.426;9.696;2024-02-04T15:45:51;13.20;77.60
84983;DHT22;75295;45.426;9.696;2024-02-04T15:48:20;13.10;77.70
84983;DHT22;75295;45.426;9.696;2024-02-04T15:50:48;13.10;77.70
84983;DHT22;75295;45.426;9.696;2024-02-04T15:53:16;13.00;77.90
84983;DHT22;75295;45.426;9.696;2024-02-04T15:55:43;13.00;78.00
84983;DHT22;75295;45.426;9.696;2024-02-04T15:58:11;13.00;78.10